KFLG/FLG METAR and TAF weather

Enter ICAO airport designator
Station Type Date Time Source
KFLG METAR 2020/01/27 13:57 UTC NOAA

KFLG 271357Z AUTO 24004KT 10SM BKN028 M01/M02 A3013 RMK AO2 SLP186 T10061022


Station Type Date Time Source
KFLG Decoded METAR 2020/01/27 13:57 UTC NOAA

FLAGSTAFF PULLIAM AIRPORT, AZ, United States (KFLG) 35-08N 111-40W 2134M
Jan 27, 2020 - 08:57 AM EST / 2020.01.27 1357 UTC
Wind: from the WSW (240 degrees) at 5 MPH (4 KT):0
Visibility: 10 mile(s):0
Sky conditions: mostly cloudy
Temperature: 30.9 F (-0.6 C)
Windchill: 26 F (-3 C):1
Dew Point: 28.0 F (-2.2 C)
Relative Humidity: 88%
Pressure (altimeter): 30.13 in. Hg (1020 hPa)
ob: KFLG 271357Z AUTO 24004KT 10SM BKN028 M01/M02 A3013 RMK AO2 SLP186 T10061022
cycle: 14

Station Type Date Time Source
KFLG TAF 2020/01/27 12:42 UTC NOAA

TAF KFLG 271140Z 2712/2812 23004KT 6SM BR SCT008 OVC025
FM271500 32007KT P6SM FEW008 SCT025
FM271700 02010G20KT P6SM SCT250
FM280200 03008KT P6SM SCT250

Example: see airport list